Time;durP1;ratioP1;P1;durP2;ratioP2;P2;SDS_P1;SDS_P2;PMS_P1;PMS_P2;Temp;Humidity;BMP_temperature;BMP_pressure;BME280_temperature;BME280_humidity;BME280_pressure;Samples;Min_cycle;Max_cycle;Signal;HPM_P1;HPM_P2
2021/01/01 00:01:14;;;;;;;16.47;13.83;;;18.80;55.20;;;;;;5041887;28;20206;-58
2021/01/01 00:03:41;;;;;;;20.63;13.07;;;18.80;55.20;;;;;;5012145;28;20203;-57
2021/01/01 00:06:11;;;;;;;56.97;14.13;;;18.80;56.20;;;;;;5040540;28;20210;-57
2021/01/01 00:08:37;;;;;;;20.70;13.43;;;18.80;56.60;;;;;;5026526;28;20207;-58
2021/01/01 00:11:03;;;;;;;20.53;12.97;;;18.90;57.20;;;;;;5035445;28;20225;-57
2021/01/01 00:13:30;;;;;;;15.97;13.23;;;18.80;56.40;;;;;;5016589;28;20226;-57
2021/01/01 00:15:56;;;;;;;18.30;13.83;;;18.90;56.40;;;;;;5025432;28;20210;-57
2021/01/01 00:18:22;;;;;;;17.23;13.07;;;18.90;56.50;;;;;;5017051;28;20206;-57
2021/01/01 00:20:49;;;;;;;18.43;14.03;;;18.90;56.70;;;;;;5025090;28;20210;-57
2021/01/01 00:23:15;;;;;;;17.33;14.60;;;18.90;56.10;;;;;;5028404;28;20210;-57
2021/01/01 00:25:43;;;;;;;18.03;14.93;;;18.90;55.60;;;;;;5031730;28;20328;-57
2021/01/01 00:28:09;;;;;;;16.43;14.70;;;18.90;55.30;;;;;;5039816;28;20218;-57
2021/01/01 00:30:36;;;;;;;17.00;15.17;;;18.90;55.00;;;;;;5028556;28;20249;-57
2021/01/01 00:33:02;;;;;;;16.73;14.93;;;18.80;54.80;;;;;;5039108;28;20223;-57
2021/01/01 00:35:28;;;;;;;18.03;16.00;;;18.80;54.90;;;;;;5034388;28;20201;-56
2021/01/01 00:37:54;;;;;;;16.80;15.17;;;18.80;54.80;;;;;;5043626;28;20186;-57
2021/01/01 00:40:21;;;;;;;16.77;15.07;;;18.70;54.80;;;;;;5034625;28;20198;-57
2021/01/01 00:42:47;;;;;;;20.80;15.87;;;18.70;55.40;;;;;;5042624;28;20201;-57
2021/01/01 00:45:13;;;;;;;18.03;16.23;;;18.60;54.70;;;;;;5033533;28;20213;-57
2021/01/01 00:47:40;;;;;;;17.83;14.97;;;18.60;54.80;;;;;;5045491;28;20241;-57
2021/01/01 00:50:06;;;;;;;17.13;15.43;;;18.60;54.90;;;;;;5035443;28;20205;-57
2021/01/01 00:52:36;;;;;;;19.30;16.10;;;18.50;54.80;;;;;;5043112;28;20198;-56
2021/01/01 00:55:03;;;;;;;17.37;15.60;;;18.50;54.80;;;;;;5032106;28;20234;-56
2021/01/01 00:57:30;;;;;;;17.20;15.43;;;18.50;54.90;;;;;;5047557;28;20226;-56
2021/01/01 00:59:57;;;;;;;17.30;15.50;;;18.50;55.00;;;;;;5035366;28;20639;-57
2021/01/01 01:02:23;;;;;;;18.00;16.10;;;18.40;54.90;;;;;;5046184;28;20695;-55
2021/01/01 01:04:49;;;;;;;18.70;16.70;;;18.40;54.90;;;;;;5045916;28;20578;-57
2021/01/01 01:07:16;;;;;;;18.60;16.60;;;18.40;54.90;;;;;;5035678;28;20214;-56
2021/01/01 01:09:43;;;;;;;18.97;16.97;;;18.40;54.90;;;;;;5044670;28;20206;-57
2021/01/01 01:12:10;;;;;;;18.53;16.63;;;18.40;54.90;;;;;;5036463;28;20198;-55
2021/01/01 01:14:38;;;;;;;19.00;17.00;;;18.30;54.90;;;;;;5045443;28;20809;-55
2021/01/01 01:17:06;;;;;;;18.23;16.43;;;18.30;54.90;;;;;;5019885;28;20203;-56
2021/01/01 01:19:32;;;;;;;18.90;17.00;;;18.30;55.00;;;;;;5049659;28;20210;-56
2021/01/01 01:21:59;;;;;;;18.50;16.67;;;18.30;55.00;;;;;;5038181;28;20207;-56
2021/01/01 01:24:25;;;;;;;17.87;16.07;;;18.30;55.00;;;;;;5049568;28;20213;-57
2021/01/01 01:26:51;;;;;;;18.90;16.87;;;18.20;55.00;;;;;;5036746;28;20202;-55
2021/01/01 01:29:21;;;;;;;18.90;17.00;;;18.20;55.00;;;;;;5048905;28;20203;-56
2021/01/01 01:31:47;;;;;;;18.50;16.60;;;18.20;55.00;;;;;;5040018;28;20230;-56
2021/01/01 01:34:13;;;;;;;18.43;16.47;;;18.10;54.90;;;;;;5048359;28;20312;-57
2021/01/01 01:36:39;;;;;;;19.27;17.37;;;18.20;55.10;;;;;;5040636;28;20203;-56
2021/01/01 01:39:11;;;;;;;18.27;16.37;;;18.20;55.10;;;;;;5049961;28;20198;-58
2021/01/01 01:41:37;;;;;;;17.60;15.77;;;18.10;55.10;;;;;;5039715;28;20191;-56
2021/01/01 01:44:04;;;;;;;18.47;16.57;;;18.10;55.70;;;;;;5048002;28;20210;-57
2021/01/01 01:46:42;;;;;;;19.43;17.43;;;18.10;55.10;;;;;;5047540;28;20222;-56
2021/01/01 01:49:11;;;;;;;18.80;16.90;;;18.10;55.10;;;;;;5040637;28;20202;-57
2021/01/01 01:51:39;;;;;;;18.77;16.83;;;18.10;55.10;;;;;;5046412;28;20198;-56
2021/01/01 01:54:06;;;;;;;17.10;15.37;;;18.10;55.10;;;;;;5037349;28;20210;-57
2021/01/01 01:56:34;;;;;;;17.60;15.90;;;18.10;55.10;;;;;;5049071;28;20209;-56
2021/01/01 01:59:01;;;;;;;17.60;15.83;;;18.10;55.20;;;;;;5040783;28;20217;-55
2021/01/01 02:01:28;;;;;;;19.00;16.80;;;18.10;55.10;;;;;;5032239;28;20293;-56
2021/01/01 02:03:55;;;;;;;17.60;15.80;;;18.10;55.10;;;;;;5023374;28;20194;-55
2021/01/01 02:06:21;;;;;;;17.93;16.13;;;18.00;55.00;;;;;;5044486;28;20199;-58
2021/01/01 02:08:51;;;;;;;19.23;17.03;;;18.10;55.10;;;;;;5037346;28;20590;-56
2021/01/01 02:11:18;;;;;;;18.17;16.07;;;18.00;55.00;;;;;;5045870;28;20203;-55
2021/01/01 02:13:51;;;;;;;19.07;16.97;;;18.10;55.10;;;;;;5041796;28;20553;-56
2021/01/01 02:16:20;;;;;;;17.90;16.00;;;18.00;55.10;;;;;;5045698;28;20191;-57
2021/01/01 02:18:47;;;;;;;18.53;16.63;;;18.00;55.10;;;;;;5040652;28;20603;-55
2021/01/01 02:21:16;;;;;;;18.57;16.57;;;18.00;55.10;;;;;;5046663;28;20206;-55
2021/01/01 02:23:43;;;;;;;17.40;15.60;;;18.00;55.20;;;;;;5040408;28;20209;-56
2021/01/01 02:26:10;;;;;;;18.30;16.27;;;18.00;55.20;;;;;;5046482;28;20548;-56
2021/01/01 02:28:36;;;;;;;18.57;16.67;;;18.00;55.20;;;;;;5043580;28;20222;-57
2021/01/01 02:31:03;;;;;;;19.13;17.13;;;18.00;55.30;;;;;;5047445;28;20256;-56
2021/01/01 02:33:29;;;;;;;17.70;15.90;;;17.90;55.30;;;;;;5050135;28;20210;-57
2021/01/01 02:35:56;;;;;;;18.07;16.17;;;17.90;55.30;;;;;;5038589;28;20191;-56
2021/01/01 02:38:22;;;;;;;18.70;16.83;;;17.90;55.30;;;;;;5049182;28;20199;-57
2021/01/01 02:40:48;;;;;;;19.63;17.63;;;17.90;55.30;;;;;;5042135;28;20194;-57
2021/01/01 02:43:15;;;;;;;19.00;17.00;;;17.90;55.40;;;;;;5048489;28;20554;-56
2021/01/01 02:45:41;;;;;;;17.77;15.97;;;17.90;55.40;;;;;;5038409;28;20706;-57
2021/01/01 02:48:15;;;;;;;19.13;16.60;;;17.90;55.40;;;;;;5049397;28;20206;-56
2021/01/01 02:50:43;;;;;;;17.97;16.17;;;17.90;55.40;;;;;;5038708;28;20210;-57
2021/01/01 02:53:09;;;;;;;18.60;16.70;;;17.80;55.50;;;;;;5049596;28;20202;-56
2021/01/01 02:55:36;;;;;;;19.17;17.17;;;17.90;55.50;;;;;;5039080;28;20218;-57
2021/01/01 02:58:03;;;;;;;19.40;17.40;;;17.80;55.50;;;;;;5049707;28;20308;-56
2021/01/01 03:00:31;;;;;;;19.90;17.63;;;17.80;55.50;;;;;;5036725;28;20199;-56
2021/01/01 03:02:59;;;;;;;19.70;17.60;;;17.80;55.50;;;;;;5047559;28;20584;-57
2021/01/01 03:05:25;;;;;;;19.60;17.60;;;17.80;55.50;;;;;;5037685;28;20213;-56
2021/01/01 03:07:51;;;;;;;19.53;17.53;;;17.80;55.50;;;;;;5049467;28;20206;-56
2021/01/01 03:10:18;;;;;;;20.17;18.07;;;17.80;55.50;;;;;;5038335;28;20209;-57
2021/01/01 03:12:46;;;;;;;19.93;17.83;;;17.80;55.50;;;;;;5046733;28;20778;-57
2021/01/01 03:15:13;;;;;;;20.00;17.90;;;17.80;55.60;;;;;;5045525;28;20223;-56
2021/01/01 03:17:40;;;;;;;20.60;18.50;;;17.80;55.60;;;;;;5042022;28;20300;-57
2021/01/01 03:20:08;;;;;;;20.70;18.60;;;17.80;55.60;;;;;;5047978;28;20213;-57
2021/01/01 03:22:35;;;;;;;19.77;17.77;;;17.70;55.60;;;;;;5037859;28;20228;-57
2021/01/01 03:25:04;;;;;;;21.63;19.33;;;17.70;55.60;;;;;;5048302;28;20270;-56
2021/01/01 03:27:31;;;;;;;21.27;19.07;;;17.70;55.60;;;;;;5034106;28;20221;-57
2021/01/01 03:29:57;;;;;;;21.47;19.17;;;17.70;55.60;;;;;;5048105;28;20249;-56
2021/01/01 03:32:24;;;;;;;20.80;18.60;;;17.70;55.60;;;;;;5035576;28;20214;-55
2021/01/01 03:34:51;;;;;;;22.30;19.27;;;17.70;55.70;;;;;;5047771;28;20214;-56
2021/01/01 03:37:17;;;;;;;22.73;20.33;;;17.70;55.70;;;;;;5036007;28;20647;-56
2021/01/01 03:39:43;;;;;;;22.23;19.83;;;17.70;55.70;;;;;;5049031;28;20190;-56
2021/01/01 03:42:11;;;;;;;21.93;19.63;;;17.60;55.70;;;;;;5037844;28;20206;-55
2021/01/01 03:44:38;;;;;;;22.03;19.63;;;17.60;55.70;;;;;;5045934;28;20567;-57
2021/01/01 03:47:06;;;;;;;22.37;20.13;;;17.60;55.70;;;;;;5040051;28;20217;-55
2021/01/01 03:49:33;;;;;;;22.80;20.37;;;17.60;55.80;;;;;;5045335;28;20194;-55
2021/01/01 03:51:59;;;;;;;23.50;21.00;;;17.60;55.80;;;;;;5044851;28;20245;-55
2021/01/01 03:54:26;;;;;;;23.60;20.77;;;17.60;55.80;;;;;;5045236;28;20218;-57
2021/01/01 03:56:52;;;;;;;22.83;20.53;;;17.60;55.80;;;;;;5044702;28;20194;-55
2021/01/01 03:59:19;;;;;;;24.53;21.93;;;17.60;55.80;;;;;;5039177;28;20202;-57
2021/01/01 04:01:46;;;;;;;23.70;21.23;;;17.60;55.80;;;;;;5046239;28;20678;-55
2021/01/01 04:04:12;;;;;;;24.10;21.70;;;17.60;55.90;;;;;;5038127;28;20847;-55
2021/01/01 04:06:38;;;;;;;23.43;20.93;;;17.60;55.80;;;;;;5044021;28;20211;-56
2021/01/01 04:09:05;;;;;;;23.40;21.00;;;17.50;55.80;;;;;;5039788;28;20674;-56
2021/01/01 04:11:35;;;;;;;23.50;21.00;;;17.60;55.80;;;;;;5046998;28;20206;-56
2021/01/01 04:14:02;;;;;;;23.80;21.30;;;17.60;55.90;;;;;;5039867;28;20218;-55
2021/01/01 04:16:30;;;;;;;25.07;22.43;;;17.60;55.90;;;;;;5046520;28;20195;-57
2021/01/01 04:18:57;;;;;;;24.77;22.20;;;17.60;55.90;;;;;;5036805;28;20206;-56
2021/01/01 04:21:23;;;;;;;25.20;22.63;;;17.60;55.90;;;;;;5046116;28;20198;-57
2021/01/01 04:23:49;;;;;;;25.40;22.70;;;17.60;55.90;;;;;;5040400;28;20209;-56
2021/01/01 04:26:16;;;;;;;24.17;21.67;;;17.60;56.00;;;;;;5046495;28;20218;-57
2021/01/01 04:28:42;;;;;;;27.10;24.30;;;17.50;55.90;;;;;;5039605;28;20206;-56
2021/01/01 04:31:08;;;;;;;24.50;21.87;;;17.50;55.90;;;;;;5045100;28;20237;-56
2021/01/01 04:33:34;;;;;;;25.67;22.97;;;17.50;55.90;;;;;;5047226;28;20205;-57
2021/01/01 04:36:01;;;;;;;24.93;22.27;;;17.50;55.90;;;;;;5037937;28;20194;-57
2021/01/01 04:38:27;;;;;;;25.17;22.57;;;17.50;55.90;;;;;;5045193;28;20197;-57
2021/01/01 04:40:53;;;;;;;26.43;23.50;;;17.50;56.00;;;;;;5036883;28;20198;-56
2021/01/01 04:43:19;;;;;;;24.77;22.20;;;17.50;55.90;;;;;;5046834;28;20213;-55
2021/01/01 04:45:46;;;;;;;25.57;22.87;;;17.50;56.00;;;;;;5037739;28;20544;-56
2021/01/01 04:48:12;;;;;;;25.37;22.53;;;17.40;55.90;;;;;;5046187;28;20187;-56
2021/01/01 04:50:39;;;;;;;24.93;22.40;;;17.50;56.00;;;;;;5038061;28;20202;-57
2021/01/01 04:53:08;;;;;;;27.77;24.67;;;17.50;56.00;;;;;;5042508;28;20582;-57
2021/01/01 04:55:36;;;;;;;26.80;23.00;;;17.40;55.60;;;;;;5034742;28;20585;-57
2021/01/01 04:58:02;;;;;;;23.93;21.43;;;17.40;56.00;;;;;;5047113;28;20190;-55
2021/01/01 05:00:29;;;;;;;26.00;22.80;;;17.40;56.00;;;;;;5037456;28;20190;-57
2021/01/01 05:02:55;;;;;;;25.47;22.77;;;17.40;56.10;;;;;;5044768;28;20203;-57
2021/01/01 05:05:28;;;;;;;25.60;22.90;;;17.40;56.10;;;;;;5037304;28;20206;-55
2021/01/01 05:07:54;;;;;;;25.33;22.63;;;17.40;56.10;;;;;;5046516;28;20206;-55
2021/01/01 05:10:20;;;;;;;25.43;22.73;;;17.40;56.10;;;;;;5038009;28;20658;-56
2021/01/01 05:12:48;;;;;;;25.97;23.17;;;17.40;56.10;;;;;;5045089;28;20202;-55
2021/01/01 05:15:34;;;;;;;24.80;22.27;;;17.30;56.10;;;;;;5045294;28;20222;-55
2021/01/01 05:18:00;;;;;;;25.23;22.60;;;17.30;56.20;;;;;;5044662;28;20618;-57
2021/01/01 05:20:30;;;;;;;25.47;22.83;;;17.30;56.10;;;;;;5045139;28;20247;-55
2021/01/01 05:23:16;;;;;;;26.27;23.57;;;17.30;56.20;;;;;;5037613;28;20203;-56
2021/01/01 05:25:42;;;;;;;26.63;23.83;;;17.30;56.20;;;;;;5045440;28;20774;-56
2021/01/01 05:28:13;;;;;;;25.80;23.03;;;17.30;56.20;;;;;;5030495;28;20206;-57
2021/01/01 05:30:39;;;;;;;25.90;23.20;;;17.30;56.20;;;;;;5045980;28;20734;-57
2021/01/01 05:33:07;;;;;;;25.20;22.50;;;17.30;56.30;;;;;;5036005;28;20707;-57
2021/01/01 05:35:34;;;;;;;25.50;22.83;;;17.30;56.30;;;;;;5044867;28;20224;-56
2021/01/01 05:38:22;;;;;;;26.60;23.80;;;17.30;56.30;;;;;;5035054;28;20198;-57
2021/01/01 05:40:49;;;;;;;25.97;23.17;;;17.30;56.30;;;;;;5045219;28;20203;-57
2021/01/01 05:43:21;;;;;;;27.43;24.53;;;17.30;56.30;;;;;;5035591;28;20209;-57
2021/01/01 05:45:48;;;;;;;24.03;21.53;;;17.20;56.30;;;;;;5047292;28;20209;-56
2021/01/01 05:48:16;;;;;;;25.87;23.27;;;17.20;56.30;;;;;;5038389;28;20234;-56
2021/01/01 05:50:44;;;;;;;25.87;23.07;;;17.30;56.40;;;;;;5045459;28;20213;-55
2021/01/01 05:53:16;;;;;;;26.13;23.43;;;17.20;56.30;;;;;;5038530;28;20212;-55
2021/01/01 05:55:44;;;;;;;25.93;23.13;;;17.20;56.30;;;;;;5039361;28;20214;-56
2021/01/01 05:58:23;;;;;;;26.40;23.70;;;17.20;56.30;;;;;;5035108;28;20207;-57
2021/01/01 06:00:57;;;;;;;24.97;22.37;;;17.20;56.30;;;;;;5042630;28;20877;-56
2021/01/01 06:03:33;;;;;;;26.50;23.80;;;17.20;56.30;;;;;;5037573;28;20630;-57
2021/01/01 06:06:04;;;;;;;26.10;23.30;;;17.20;56.30;;;;;;5049484;28;20194;-55
2021/01/01 06:08:32;;;;;;;26.20;23.37;;;17.20;56.40;;;;;;5039612;28;20213;-57
2021/01/01 06:11:05;;;;;;;26.80;24.00;;;17.20;56.40;;;;;;5048231;28;20201;-55
2021/01/01 06:13:34;;;;;;;26.77;24.00;;;17.20;56.30;;;;;;5040545;28;20217;-56
2021/01/01 06:16:04;;;;;;;25.63;22.83;;;17.20;56.40;;;;;;5048829;28;20192;-56
2021/01/01 06:18:33;;;;;;;27.13;24.33;;;17.20;56.40;;;;;;5040689;28;20203;-60
2021/01/01 06:21:06;;;;;;;27.50;24.60;;;17.20;56.40;;;;;;5048738;28;20244;-57
2021/01/01 06:23:37;;;;;;;27.13;24.13;;;17.20;56.40;;;;;;5039573;28;20623;-56
2021/01/01 06:26:06;;;;;;;27.27;24.07;;;17.10;56.90;;;;;;5047454;28;20670;-56
2021/01/01 06:28:35;;;;;;;26.30;23.60;;;17.10;56.30;;;;;;5044517;28;20678;-56
2021/01/01 06:31:02;;;;;;;27.03;24.17;;;17.10;56.30;;;;;;5047721;28;20921;-56
2021/01/01 06:33:31;;;;;;;25.30;22.63;;;17.10;56.20;;;;;;5048932;28;20210;-55
2021/01/01 06:35:57;;;;;;;28.57;24.97;;;17.10;56.20;;;;;;5040439;28;20198;-56
2021/01/01 06:38:41;;;;;;;26.23;23.43;;;17.10;56.20;;;;;;5046567;28;20276;-56
2021/01/01 06:41:34;;;;;;;26.77;23.93;;;17.10;56.20;;;;;;5039018;28;20314;-56
2021/01/01 06:44:00;;;;;;;26.03;22.97;;;17.10;56.10;;;;;;5049396;28;20211;-56
2021/01/01 06:46:43;;;;;;;26.70;23.80;;;17.10;56.10;;;;;;5037183;28;20201;-55
2021/01/01 06:49:30;;;;;;;26.50;23.70;;;17.10;56.10;;;;;;5049023;28;20225;-55
2021/01/01 06:52:14;;;;;;;28.00;24.57;;;17.10;56.10;;;;;;5046830;28;20229;-56
2021/01/01 06:54:59;;;;;;;26.63;23.77;;;17.10;56.10;;;;;;5039372;28;20246;-55
2021/01/01 06:57:30;;;;;;;25.37;22.70;;;17.10;56.10;;;;;;5046395;28;20199;-57
2021/01/01 07:00:00;;;;;;;27.27;24.37;;;17.10;56.10;;;;;;5039739;28;20221;-57
2021/01/01 07:02:28;;;;;;;26.03;23.33;;;17.00;56.10;;;;;;5048276;28;20187;-57
2021/01/01 07:05:00;;;;;;;27.77;24.17;;;17.10;56.10;;;;;;5042987;28;20202;-56
2021/01/01 07:07:43;;;;;;;28.87;24.37;;;17.00;56.00;;;;;;5046850;28;20206;-56
2021/01/01 07:10:33;;;;;;;26.30;23.50;;;17.00;56.00;;;;;;5048342;28;20194;-56
2021/01/01 07:13:16;;;;;;;26.33;23.53;;;17.00;56.00;;;;;;5041540;28;20204;-56
2021/01/01 07:15:42;;;;;;;26.57;23.67;;;17.00;56.00;;;;;;5037985;28;20214;-56
2021/01/01 07:18:09;;;;;;;25.57;22.97;;;17.00;56.10;;;;;;5048376;28;20198;-56
2021/01/01 07:20:40;;;;;;;26.60;23.63;;;17.00;56.10;;;;;;5048162;28;20197;-56
2021/01/01 07:23:06;;;;;;;26.07;23.30;;;17.00;56.10;;;;;;5044580;28;20209;-57
2021/01/01 07:25:34;;;;;;;25.50;22.80;;;17.00;56.00;;;;;;5046698;28;20206;-56
2021/01/01 07:28:03;;;;;;;24.80;22.30;;;17.00;56.00;;;;;;5037903;28;20202;-56
2021/01/01 07:30:38;;;;;;;24.90;22.27;;;17.00;56.00;;;;;;5046022;28;20238;-54
2021/01/01 07:33:04;;;;;;;26.87;24.00;;;17.00;56.00;;;;;;5021450;28;20225;-55
2021/01/01 07:35:50;;;;;;;24.00;21.47;;;16.90;55.90;;;;;;5052208;28;20233;-54
2021/01/01 07:38:44;;;;;;;27.80;23.23;;;17.00;56.00;;;;;;5036587;28;20297;-56
2021/01/01 07:41:11;;;;;;;27.20;21.37;;;16.90;55.90;;;;;;5054932;28;20221;-55
2021/01/01 07:43:38;;;;;;;24.93;22.33;;;16.90;56.00;;;;;;5036726;28;20210;-54
2021/01/01 07:46:07;;;;;;;25.03;22.20;;;16.90;55.90;;;;;;5046682;28;20666;-55
2021/01/01 07:48:34;;;;;;;25.43;22.83;;;16.90;55.90;;;;;;5039487;28;20211;-55
2021/01/01 07:51:06;;;;;;;24.77;22.10;;;16.90;55.90;;;;;;5047140;28;20213;-56
2021/01/01 07:53:34;;;;;;;24.27;21.63;;;16.90;55.90;;;;;;5038091;28;20202;-56
2021/01/01 07:56:03;;;;;;;25.07;22.37;;;16.90;55.90;;;;;;5047660;28;20214;-56
2021/01/01 07:58:36;;;;;;;24.13;20.90;;;16.90;55.90;;;;;;5037939;28;20230;-57
2021/01/01 08:01:08;;;;;;;23.70;21.30;;;16.90;55.90;;;;;;5047319;28;20886;-56
2021/01/01 08:03:37;;;;;;;23.97;21.47;;;16.90;55.90;;;;;;5037307;28;20206;-57
2021/01/01 08:06:05;;;;;;;23.20;20.73;;;16.90;55.80;;;;;;5048255;28;20217;-56
2021/01/01 08:08:32;;;;;;;24.00;21.50;;;16.90;55.80;;;;;;5038783;28;20218;-57
2021/01/01 08:10:59;;;;;;;22.47;20.07;;;16.90;55.80;;;;;;5047288;28;20218;-57
2021/01/01 08:13:32;;;;;;;22.33;19.90;;;16.90;55.80;;;;;;5037039;28;20198;-56
2021/01/01 08:16:10;;;;;;;24.77;20.37;;;16.80;55.80;;;;;;5047579;28;20230;-56
2021/01/01 08:18:36;;;;;;;23.33;20.77;;;16.80;55.80;;;;;;5038619;28;20202;-56
2021/01/01 08:21:04;;;;;;;23.40;19.77;;;16.90;55.90;;;;;;5047119;28;20209;-56
2021/01/01 08:23:45;;;;;;;22.37;20.03;;;16.80;55.80;;;;;;5037880;28;20199;-56
2021/01/01 08:26:12;;;;;;;21.90;19.70;;;16.80;55.80;;;;;;5044075;28;20659;-56
2021/01/01 08:28:40;;;;;;;22.37;20.07;;;16.80;55.80;;;;;;5035768;28;20202;-56
2021/01/01 08:31:10;;;;;;;21.37;19.17;;;16.80;55.80;;;;;;5044583;28;20312;-57
2021/01/01 08:33:41;;;;;;;21.07;18.97;;;16.80;55.80;;;;;;5044424;28;20576;-57
2021/01/01 08:36:10;;;;;;;21.13;18.93;;;16.80;55.90;;;;;;5044264;28;20241;-56
2021/01/01 08:38:39;;;;;;;20.77;18.57;;;16.80;55.80;;;;;;5043483;28;20206;-57
2021/01/01 08:41:06;;;;;;;20.63;18.40;;;16.80;55.80;;;;;;5038521;28;20210;-56
2021/01/01 08:43:32;;;;;;;20.37;18.27;;;16.80;55.80;;;;;;5045428;28;20206;-57
2021/01/01 08:46:14;;;;;;;22.10;18.53;;;16.80;55.80;;;;;;5039089;28;20202;-56
2021/01/01 08:48:40;;;;;;;19.73;17.63;;;16.80;55.80;;;;;;5044858;28;20209;-56
2021/01/01 08:51:06;;;;;;;19.37;17.43;;;16.80;55.80;;;;;;5038541;28;20202;-55
2021/01/01 08:53:40;;;;;;;19.63;17.53;;;16.80;55.80;;;;;;5031810;28;20201;-56
2021/01/01 08:56:08;;;;;;;19.50;17.43;;;16.80;55.80;;;;;;5038368;28;20678;-55
2021/01/01 08:58:34;;;;;;;18.43;16.53;;;16.80;55.80;;;;;;5046045;28;20855;-55
2021/01/01 09:01:23;;;;;;;18.03;16.10;;;16.80;55.80;;;;;;5039849;28;20226;-55
2021/01/01 09:04:00;;;;;;;18.53;16.63;;;16.80;55.80;;;;;;5047105;28;20206;-55
2021/01/01 09:06:26;;;;;;;17.93;16.07;;;16.70;55.80;;;;;;5039625;28;20201;-55
2021/01/01 09:09:06;;;;;;;18.00;16.10;;;16.70;55.80;;;;;;5045554;28;20206;-55
2021/01/01 09:11:33;;;;;;;17.23;15.43;;;16.70;55.80;;;;;;5037118;28;20198;-55
2021/01/01 09:14:01;;;;;;;21.23;17.20;;;16.80;55.80;;;;;;5046947;28;20198;-55
2021/01/01 09:16:45;;;;;;;22.03;15.47;;;16.70;55.70;;;;;;5038829;28;20532;-55
2021/01/01 09:19:11;;;;;;;21.87;15.73;;;16.70;55.80;;;;;;5042213;28;20266;-55
2021/01/01 09:21:38;;;;;;;21.50;15.73;;;16.70;55.70;;;;;;5038808;28;20207;-56
2021/01/01 09:24:05;;;;;;;17.27;15.47;;;16.70;55.60;;;;;;5045542;28;20214;-55
2021/01/01 09:26:32;;;;;;;19.37;14.70;;;16.70;55.60;;;;;;5040309;28;20685;-55
2021/01/01 09:29:05;;;;;;;18.83;14.70;;;16.70;55.50;;;;;;5043461;28;20207;-55
2021/01/01 09:31:32;;;;;;;19.20;14.80;;;16.70;55.50;;;;;;5036229;28;20256;-55
2021/01/01 09:34:04;;;;;;;21.17;16.07;;;16.70;55.50;;;;;;5045608;28;20197;-55
2021/01/01 09:36:35;;;;;;;18.20;14.63;;;16.70;55.50;;;;;;5039078;28;20913;-56
2021/01/01 09:39:06;;;;;;;18.20;14.67;;;16.70;56.10;;;;;;5049419;28;20886;-55
2021/01/01 09:41:33;;;;;;;16.60;14.10;;;16.70;55.60;;;;;;5043706;28;20191;-55
2021/01/01 09:43:59;;;;;;;22.20;14.90;;;16.70;56.10;;;;;;5046831;28;20210;-55
2021/01/01 09:46:26;;;;;;;19.23;13.60;;;16.70;55.50;;;;;;5050947;28;20691;-55
2021/01/01 09:48:52;;;;;;;19.23;14.00;;;16.70;55.50;;;;;;5024894;28;20215;-56
2021/01/01 09:51:18;;;;;;;19.17;14.30;;;16.70;55.60;;;;;;5050860;28;20210;-59
2021/01/01 09:53:45;;;;;;;19.43;14.23;;;16.70;55.70;;;;;;5026263;28;20669;-55
2021/01/01 09:56:12;;;;;;;21.20;13.63;;;16.70;55.80;;;;;;5049832;28;20226;-55
2021/01/01 09:58:38;;;;;;;25.97;14.77;;;16.70;55.80;;;;;;5040866;28;20565;-55
2021/01/01 10:01:04;;;;;;;26.87;14.30;;;16.70;56.00;;;;;;5050531;28;20557;-56
2021/01/01 10:03:31;;;;;;;19.60;13.77;;;16.70;56.10;;;;;;5040787;28;20207;-57
2021/01/01 10:05:57;;;;;;;24.97;13.50;;;16.70;56.20;;;;;;5032428;28;20218;-56
2021/01/01 10:08:23;;;;;;;17.20;13.80;;;16.70;56.00;;;;;;5038196;28;20210;-57
2021/01/01 10:10:52;;;;;;;18.73;13.53;;;16.70;55.90;;;;;;5049659;28;20209;-57
2021/01/01 10:13:18;;;;;;;20.63;13.23;;;16.70;55.90;;;;;;5039355;28;20807;-56
2021/01/01 10:15:46;;;;;;;18.80;14.30;;;16.70;55.90;;;;;;5048454;28;20225;-56
2021/01/01 10:18:12;;;;;;;18.33;13.23;;;16.70;56.00;;;;;;5038739;28;20186;-56
2021/01/01 10:20:38;;;;;;;20.13;13.17;;;16.70;56.00;;;;;;5048277;28;20260;-57
2021/01/01 10:23:04;;;;;;;16.83;12.13;;;16.70;56.00;;;;;;5048850;28;20670;-56
2021/01/01 10:25:31;;;;;;;14.47;12.80;;;16.70;56.00;;;;;;5041468;28;20209;-56
2021/01/01 10:27:57;;;;;;;16.10;12.43;;;16.70;56.00;;;;;;5045691;28;20202;-57
2021/01/01 10:30:23;;;;;;;14.27;12.73;;;16.70;55.90;;;;;;5040233;28;20229;-57
2021/01/01 10:32:49;;;;;;;18.10;12.40;;;16.70;55.90;;;;;;5046870;28;20774;-57
2021/01/01 10:35:16;;;;;;;21.03;12.80;;;16.70;56.40;;;;;;5035486;28;20234;-56
2021/01/01 10:37:42;;;;;;;19.87;12.37;;;16.70;56.80;;;;;;5046574;28;20198;-57
2021/01/01 10:40:08;;;;;;;20.40;12.43;;;16.70;57.00;;;;;;5037999;28;20217;-56
2021/01/01 10:42:35;;;;;;;17.87;12.07;;;16.70;56.90;;;;;;5045079;28;20198;-57
2021/01/01 10:45:01;;;;;;;18.17;12.27;;;16.70;56.70;;;;;;5040250;28;20198;-56
2021/01/01 10:47:28;;;;;;;15.43;13.20;;;16.70;56.60;;;;;;5047589;28;20266;-56
2021/01/01 10:49:54;;;;;;;13.57;11.07;;;16.70;56.50;;;;;;5038786;28;20305;-56
2021/01/01 10:52:20;;;;;;;16.67;12.60;;;16.70;56.40;;;;;;5050798;28;20198;-56
2021/01/01 10:54:47;;;;;;;14.20;11.80;;;16.70;56.30;;;;;;5039043;28;20303;-56
2021/01/01 10:57:13;;;;;;;15.80;11.80;;;16.70;56.20;;;;;;5047881;28;20194;-56
2021/01/01 10:59:40;;;;;;;14.43;11.63;;;16.70;56.40;;;;;;5046693;28;20642;-60
2021/01/01 11:02:06;;;;;;;14.30;11.20;;;16.70;56.50;;;;;;5039162;28;20800;-56
2021/01/01 11:04:33;;;;;;;12.70;9.80;;;16.70;56.50;;;;;;5046017;28;20835;-56
2021/01/01 11:07:00;;;;;;;14.03;11.13;;;16.70;56.50;;;;;;5038245;28;20195;-56
2021/01/01 11:09:31;;;;;;;15.90;9.60;;;16.70;56.50;;;;;;5047443;28;20622;-58
2021/01/01 11:12:00;;;;;;;12.67;9.60;;;16.70;56.70;;;;;;5039925;28;20260;-60
2021/01/01 12:26:18;;;;;;;7.77;5.50;;;20.10;50.30;;;;;;5039349;28;20555;-58
2021/01/01 12:29:02;;;;;;;5.87;4.87;;;20.00;50.40;;;;;;5036738;28;20202;-58
2021/01/01 12:31:30;;;;;;;7.17;4.73;;;19.90;50.40;;;;;;5043352;28;20237;-58
2021/01/01 12:33:57;;;;;;;7.37;4.57;;;19.80;50.50;;;;;;5037474;28;20245;-58
2021/01/01 12:36:26;;;;;;;8.33;5.17;;;19.80;50.70;;;;;;5041743;28;20769;-58
2021/01/01 12:38:52;;;;;;;7.87;4.77;;;19.80;50.90;;;;;;5040652;28;20541;-58
2021/01/01 12:41:19;;;;;;;6.63;4.60;;;19.80;50.90;;;;;;5043131;28;20218;-56
2021/01/01 12:43:46;;;;;;;5.17;4.30;;;19.70;50.90;;;;;;5047357;28;20202;-56
2021/01/01 12:46:13;;;;;;;5.47;4.23;;;19.80;50.90;;;;;;5041033;28;20264;-54
2021/01/01 12:48:39;;;;;;;5.43;4.13;;;19.70;50.90;;;;;;5048682;28;20190;-56
2021/01/01 12:51:05;;;;;;;4.77;4.23;;;19.70;50.90;;;;;;5043508;28;21342;-56
2021/01/01 12:53:32;;;;;;;5.57;4.10;;;19.70;50.90;;;;;;5045354;28;20201;-54
2021/01/01 12:55:58;;;;;;;4.60;3.97;;;19.70;50.90;;;;;;5042743;28;20222;-54
2021/01/01 12:58:25;;;;;;;6.10;3.70;;;19.70;50.80;;;;;;5040234;28;20202;-54
2021/01/01 13:00:51;;;;;;;5.73;3.80;;;19.70;50.80;;;;;;5043496;28;20202;-54
2021/01/01 13:03:17;;;;;;;5.27;3.43;;;19.70;50.80;;;;;;5050320;28;20237;-56
2021/01/01 13:05:44;;;;;;;4.43;3.77;;;19.60;50.80;;;;;;5043178;28;20190;-57
2021/01/01 13:08:10;;;;;;;4.23;3.37;;;19.60;50.80;;;;;;5045354;28;20198;-62
2021/01/01 13:10:36;;;;;;;4.27;3.37;;;19.90;51.00;;;;;;5036442;28;20249;-60
2021/01/01 13:13:02;;;;;;;5.83;2.80;;;20.40;50.20;;;;;;5045328;28;20567;-58
2021/01/01 13:15:31;;;;;;;4.07;2.90;;;21.10;49.40;;;;;;5044209;28;20213;-59
2021/01/01 13:17:57;;;;;;;3.97;2.67;;;21.50;48.80;;;;;;5048718;28;20195;-60
2021/01/01 13:20:23;;;;;;;5.23;2.90;;;21.70;48.10;;;;;;5048249;28;20615;-60
2021/01/01 13:22:50;;;;;;;3.50;2.70;;;22.10;47.50;;;;;;5038286;28;20823;-58
2021/01/01 13:25:19;;;;;;;4.30;2.73;;;22.40;47.00;;;;;;5049240;28;20217;-58
2021/01/01 13:27:45;;;;;;;5.80;2.40;;;22.60;46.70;;;;;;5039344;28;20297;-60
2021/01/01 13:30:15;;;;;;;12.83;2.47;;;22.70;46.50;;;;;;5048762;28;20651;-59
2021/01/01 13:32:43;;;;;;;2.90;2.20;;;22.90;46.30;;;;;;5022267;28;20233;-58
2021/01/01 13:35:10;;;;;;;2.57;2.30;;;23.00;46.00;;;;;;5050718;28;20238;-58
2021/01/01 13:37:37;;;;;;;5.03;2.10;;;23.10;45.90;;;;;;5041905;28;20256;-60
2021/01/01 13:40:05;;;;;;;3.20;2.40;;;23.30;45.80;;;;;;5048871;28;20209;-59
2021/01/01 13:42:35;;;;;;;2.70;2.27;;;23.30;46.30;;;;;;5043288;28;20711;-58
2021/01/01 13:45:02;;;;;;;3.60;2.37;;;22.80;46.40;;;;;;5051073;28;20565;-55
2021/01/01 13:47:28;;;;;;;7.27;2.57;;;22.30;45.90;;;;;;5046194;28;20209;-55